createdAt,value
2019-04-05T00:01:17.724Z,29.35
2019-04-05T00:03:46.994Z,17.65
2019-04-05T00:06:15.879Z,30.90
2019-04-05T00:08:44.947Z,21.05
2019-04-05T00:11:13.860Z,16.15
2019-04-05T00:13:42.755Z,16.57
2019-04-05T00:16:11.709Z,19.67
2019-04-05T00:18:40.839Z,14.20
2019-04-05T00:21:09.738Z,19.57
2019-04-05T00:23:38.953Z,27.87
2019-04-05T00:26:07.855Z,21.55
2019-04-05T00:28:36.817Z,29.32
2019-04-05T00:31:05.763Z,16.77
2019-04-05T00:33:34.653Z,27.55
2019-04-05T00:36:03.547Z,31.07
2019-04-05T00:38:32.486Z,26.33
2019-04-05T00:41:01.583Z,20.80
2019-04-05T00:43:30.479Z,32.17
2019-04-05T00:45:59.426Z,24.82
2019-04-05T00:48:28.524Z,31.95
2019-04-05T00:50:57.413Z,34.58
2019-04-05T00:53:26.360Z,36.08
2019-04-05T00:55:55.253Z,28.23
2019-04-05T00:58:24.149Z,25.90
2019-04-05T01:00:53.141Z,25.52
2019-04-05T01:03:22.008Z,39.65
2019-04-05T01:05:51.019Z,32.15
2019-04-05T01:08:20.239Z,20.88
2019-04-05T01:10:49.146Z,28.12
2019-04-05T01:13:18.135Z,38.75
2019-04-05T01:15:47.074Z,32.23
2019-04-05T01:18:16.315Z,34.78
2019-04-05T01:20:48.162Z,30.90
2019-04-05T01:23:18.415Z,25.48
2019-04-05T01:25:47.445Z,13.25
2019-04-05T01:28:18.205Z,18.90
2019-04-05T01:30:47.239Z,37.05
2019-04-05T01:33:16.334Z,30.32
2019-04-05T01:35:45.223Z,33.40
2019-04-05T01:38:14.219Z,21.75
2019-04-05T01:40:46.189Z,30.17
2019-04-05T01:43:15.792Z,36.75
2019-04-05T01:45:53.490Z,37.25
2019-04-05T01:48:17.565Z,30.37
2019-04-05T01:50:46.553Z,17.48
2019-04-05T01:53:15.612Z,22.20
2019-04-05T01:55:44.491Z,38.33
2019-04-05T01:58:31.541Z,41.70
2019-04-05T02:01:00.441Z,37.80
2019-04-05T02:03:29.340Z,35.85
2019-04-05T02:05:58.383Z,25.60
2019-04-05T02:08:28.310Z,32.33
2019-04-05T02:10:59.315Z,19.48
2019-04-05T02:13:28.196Z,38.30
2019-04-05T02:16:06.244Z,28.52
2019-04-05T02:18:27.939Z,20.32
2019-04-05T02:20:56.806Z,43.87
2019-04-05T02:23:25.700Z,21.33
2019-04-05T02:25:54.632Z,36.70
2019-04-05T02:28:25.485Z,30.68
2019-04-05T02:30:54.149Z,33.18
2019-04-05T02:33:23.175Z,25.40
2019-04-05T02:35:52.056Z,28.00
2019-04-05T02:38:21.042Z,18.77
2019-04-05T02:40:50.793Z,20.43
2019-04-05T02:43:21.561Z,19.60
2019-04-05T02:45:51.032Z,31.95
2019-04-05T02:48:21.320Z,28.47
2019-04-05T02:50:53.166Z,26.05
2019-04-05T02:53:23.278Z,24.65
2019-04-05T02:55:53.812Z,17.23
2019-04-05T02:58:24.014Z,35.92
2019-04-05T03:00:53.606Z,20.52
2019-04-05T03:03:23.125Z,22.22
2019-04-05T03:05:52.813Z,24.60
2019-04-05T03:08:21.859Z,35.90
2019-04-05T03:11:05.956Z,42.85
2019-04-05T03:13:40.482Z,26.82
2019-04-05T03:16:18.240Z,30.90
2019-04-05T03:18:50.262Z,29.20
2019-04-05T03:21:21.517Z,43.85
2019-04-05T03:23:52.359Z,21.55
2019-04-05T03:26:24.215Z,39.92
2019-04-05T03:28:56.111Z,33.13
2019-04-05T03:31:26.189Z,35.78
2019-04-05T03:33:59.044Z,23.40
2019-04-05T03:36:28.582Z,16.15
2019-04-05T03:38:58.370Z,16.55
2019-04-05T03:41:28.785Z,46.28
2019-04-05T03:43:57.745Z,26.68
2019-04-05T03:46:27.145Z,26.87
2019-04-05T03:48:56.697Z,30.52
2019-04-05T03:51:26.279Z,22.93
2019-04-05T03:53:55.834Z,38.92
2019-04-05T03:56:25.053Z,35.88
2019-04-05T03:58:53.956Z,33.13
2019-04-05T04:01:22.919Z,35.10
2019-04-05T04:03:51.852Z,32.73
2019-04-05T04:06:20.754Z,16.75
2019-04-05T04:08:50.003Z,34.67
2019-04-05T04:11:19.033Z,25.77
2019-04-05T04:13:48.421Z,31.52
2019-04-05T04:16:17.720Z,30.05
2019-04-05T04:18:47.220Z,29.92
2019-04-05T04:21:31.020Z,25.45
2019-04-05T04:24:00.466Z,28.87
2019-04-05T04:26:30.066Z,18.80
2019-04-05T04:28:59.477Z,21.97
2019-04-05T04:31:28.614Z,21.52
2019-04-05T04:33:58.200Z,25.05
2019-04-05T04:36:27.184Z,44.23
2019-04-05T04:38:56.905Z,49.75
2019-04-05T04:41:25.797Z,26.68
2019-04-05T04:43:55.814Z,30.95
2019-04-05T04:46:24.916Z,23.57
2019-04-05T04:48:54.465Z,21.23
2019-04-05T04:51:24.266Z,27.10
2019-04-05T04:53:53.931Z,23.90
2019-04-05T04:56:22.821Z,23.20
2019-04-05T04:58:51.920Z,37.28
2019-04-05T05:01:21.687Z,35.98
2019-04-05T05:03:51.090Z,41.65
2019-04-05T05:06:20.187Z,26.07
2019-04-05T05:08:49.168Z,25.32
2019-04-05T05:11:18.948Z,55.23
2019-04-05T05:13:48.033Z,26.57
2019-04-05T05:16:17.762Z,38.15
2019-04-05T05:18:46.818Z,31.50
2019-04-05T05:21:16.011Z,36.10
2019-04-05T05:23:45.370Z,38.70
2019-04-05T05:26:14.314Z,40.03
2019-04-05T05:28:43.316Z,25.32
2019-04-05T05:31:12.250Z,23.95
2019-04-05T05:33:41.204Z,24.55
2019-04-05T05:36:10.763Z,31.23
2019-04-05T05:38:40.257Z,41.05
2019-04-05T05:41:09.153Z,40.43
2019-04-05T05:43:38.147Z,49.03
2019-04-05T05:46:07.155Z,32.67
2019-04-05T05:48:36.783Z,22.52
2019-04-05T05:51:05.782Z,34.70
2019-04-05T05:53:34.725Z,44.60
2019-04-05T05:56:03.618Z,35.38
2019-04-05T05:58:32.517Z,39.45
2019-04-05T06:01:01.471Z,34.85
2019-04-05T06:03:30.346Z,25.45
2019-04-05T06:06:04.425Z,24.05
2019-04-05T06:08:29.816Z,34.20
2019-04-05T06:10:58.721Z,51.05
2019-04-05T06:13:27.634Z,33.98
2019-04-05T06:15:56.682Z,39.08
2019-04-05T06:18:27.626Z,44.20
2019-04-05T06:20:56.508Z,39.55
2019-04-05T06:23:33.507Z,43.60
2019-04-05T06:25:55.976Z,35.78
2019-04-05T06:28:43.778Z,47.33
2019-04-05T06:31:12.729Z,25.75
2019-04-05T06:33:41.639Z,27.93
2019-04-05T06:36:10.631Z,32.73
2019-04-05T06:38:39.830Z,22.17
2019-04-05T06:41:08.714Z,39.55
2019-04-05T06:43:37.858Z,39.05
2019-04-05T06:46:06.872Z,36.13
2019-04-05T06:48:36.469Z,20.60
2019-04-05T06:51:05.407Z,29.07
2019-04-05T06:53:34.321Z,25.97
2019-04-05T06:56:03.199Z,41.18
2019-04-05T06:58:32.137Z,36.98
2019-04-05T07:01:01.014Z,24.60
2019-04-05T07:03:29.890Z,41.65
2019-04-05T07:05:58.826Z,22.65
2019-04-05T07:08:27.741Z,43.70
2019-04-05T07:10:56.612Z,25.02
2019-04-05T07:13:27.429Z,24.40
2019-04-05T07:15:56.085Z,20.52
2019-04-05T07:18:35.658Z,21.30
2019-04-05T07:20:57.993Z,41.37
2019-04-05T07:23:27.306Z,34.15
2019-04-05T07:25:56.183Z,20.75
2019-04-05T07:28:43.250Z,38.25
2019-04-05T07:31:12.129Z,42.17
2019-04-05T07:33:40.990Z,23.40
2019-04-05T07:36:09.929Z,28.55
2019-04-05T07:38:40.871Z,20.72
2019-04-05T07:41:09.749Z,11.38
2019-04-05T07:43:38.691Z,22.87
2019-04-05T07:46:07.635Z,29.85
2019-04-05T07:48:44.676Z,31.12
2019-04-05T07:51:08.314Z,21.70
2019-04-05T07:53:37.189Z,27.67
2019-04-05T07:56:06.171Z,25.72
2019-04-05T07:58:36.683Z,36.23
2019-04-05T08:01:06.459Z,30.57
2019-04-05T08:03:35.348Z,14.13
2019-04-05T08:06:04.785Z,37.53
2019-04-05T08:08:39.519Z,21.77
2019-04-05T08:11:08.943Z,36.17
2019-04-05T08:13:40.911Z,31.35
2019-04-05T08:16:09.905Z,34.83
2019-04-05T08:18:40.856Z,22.17
2019-04-05T08:21:09.736Z,27.35
2019-04-05T08:23:38.600Z,24.10
2019-04-05T08:26:07.739Z,35.63
2019-04-05T08:28:38.641Z,49.05
2019-04-05T08:31:10.796Z,34.15
2019-04-05T08:33:38.126Z,35.10
2019-04-05T08:36:07.008Z,28.25
2019-04-05T08:38:40.012Z,35.88
2019-04-05T08:41:09.229Z,33.42
2019-04-05T08:43:38.484Z,35.73
2019-04-05T08:46:07.364Z,36.80
2019-04-05T08:48:36.739Z,30.10
2019-04-05T08:51:06.008Z,24.55
2019-04-05T08:53:34.901Z,27.15
2019-04-05T08:56:03.921Z,28.45
2019-04-05T08:58:33.846Z,22.20
2019-04-05T09:01:02.821Z,19.10
2019-04-05T09:03:31.783Z,21.10
2019-04-05T09:06:00.671Z,24.07
2019-04-05T09:08:33.992Z,27.48
2019-04-05T09:11:02.934Z,26.05
2019-04-05T09:13:31.816Z,23.25
2019-04-05T09:16:00.703Z,21.87
2019-04-05T09:18:29.707Z,23.65
2019-04-05T09:20:58.588Z,22.85
2019-04-05T09:23:27.479Z,27.25
2019-04-05T09:25:56.402Z,19.07
2019-04-05T09:28:25.307Z,28.00
2019-04-05T09:30:54.186Z,27.98
2019-04-05T09:33:26.819Z,33.30
2019-04-05T09:35:55.687Z,31.80
2019-04-05T09:38:25.869Z,39.98
2019-04-05T09:40:54.807Z,27.37
2019-04-05T09:43:25.370Z,39.38
2019-04-05T09:45:54.269Z,27.62
2019-04-05T09:48:23.435Z,31.50
2019-04-05T09:50:53.483Z,20.32
2019-04-05T09:53:22.369Z,25.70
2019-04-05T09:55:51.392Z,32.88
2019-04-05T09:58:20.290Z,28.85
2019-04-05T10:00:49.188Z,27.82
2019-04-05T10:03:18.139Z,30.60
2019-04-05T10:05:47.029Z,25.05
2019-04-05T10:08:15.900Z,34.53
2019-04-05T10:10:44.837Z,27.90
2019-04-05T10:13:13.734Z,35.92
2019-04-05T10:15:42.603Z,22.35
2019-04-05T10:18:11.963Z,27.73
2019-04-05T10:20:40.840Z,33.38
2019-04-05T10:23:09.741Z,32.48
2019-04-05T10:25:38.691Z,39.55
2019-04-05T10:28:07.598Z,31.50
2019-04-05T10:30:36.460Z,35.58
2019-04-05T10:33:05.411Z,32.60
2019-04-05T10:35:34.290Z,37.53
2019-04-05T10:38:03.280Z,30.12
2019-04-05T10:40:32.895Z,26.65
2019-04-05T10:43:01.773Z,32.48
2019-04-05T10:45:30.832Z,26.27
2019-04-05T10:48:01.711Z,24.18
2019-04-05T10:50:30.624Z,23.42
2019-04-05T10:52:59.493Z,30.55
2019-04-05T10:55:28.438Z,33.35
2019-04-05T10:57:58.295Z,35.80
2019-04-05T11:00:27.376Z,32.48
2019-04-05T11:02:56.431Z,30.37
2019-04-05T11:05:25.302Z,23.42
2019-04-05T11:07:54.191Z,20.15
2019-04-05T11:10:23.139Z,32.63
2019-04-05T11:12:52.048Z,27.90
2019-04-05T11:15:21.071Z,32.60
2019-04-05T11:17:50.068Z,36.68
2019-04-05T11:20:22.304Z,38.28
2019-04-05T11:22:50.991Z,34.53
2019-04-05T11:25:20.877Z,27.50
2019-04-05T11:27:50.382Z,36.85
2019-04-05T11:30:43.285Z,39.38
2019-04-05T11:33:12.171Z,36.63
2019-04-05T11:35:41.540Z,42.85
2019-04-05T11:38:10.463Z,36.60
2019-04-05T11:40:39.739Z,39.88
2019-04-05T11:43:08.636Z,37.95
2019-04-05T11:45:37.783Z,40.40
2019-04-05T11:48:07.118Z,30.10
2019-04-05T11:50:36.686Z,45.58
2019-04-05T11:53:05.682Z,36.88
2019-04-05T11:55:35.046Z,31.62
2019-04-05T11:58:03.929Z,36.73
2019-04-05T12:00:43.577Z,41.85
2019-04-05T12:03:14.033Z,29.05
2019-04-05T12:05:43.016Z,38.60
2019-04-05T12:08:12.053Z,28.02
2019-04-05T12:10:41.136Z,26.00
2019-04-05T12:13:10.015Z,24.10
2019-04-05T12:15:38.955Z,26.80
2019-04-05T12:18:07.841Z,35.33
2019-04-05T12:20:47.925Z,24.72
2019-04-05T12:23:07.331Z,29.02
2019-04-05T12:25:36.250Z,23.55
2019-04-05T12:28:07.575Z,15.55
2019-04-05T12:30:35.879Z,21.35
2019-04-05T12:33:13.637Z,26.45
2019-04-05T12:35:37.559Z,26.50
2019-04-05T12:38:07.080Z,17.45
2019-04-05T12:40:38.484Z,33.65
2019-04-05T12:43:07.411Z,23.73
2019-04-05T12:45:36.732Z,26.97
2019-04-05T12:48:05.616Z,30.30
2019-04-05T12:50:34.494Z,22.48
2019-04-05T12:53:03.428Z,32.20
2019-04-05T13:01:08.061Z,18.45
2019-04-05T13:03:35.691Z,22.07
2019-04-05T13:06:04.745Z,19.73
2019-04-05T13:08:33.625Z,23.65
2019-04-05T13:11:02.656Z,28.27
2019-04-05T13:13:31.536Z,27.00
2019-04-05T13:16:00.431Z,26.07
2019-04-05T13:18:31.555Z,22.73
2019-04-05T13:21:00.337Z,26.52
2019-04-05T13:23:30.093Z,24.70
2019-04-05T13:25:59.062Z,25.70
2019-04-05T13:28:27.951Z,25.25
2019-04-05T13:30:56.858Z,29.77
2019-04-05T13:33:25.814Z,25.60
2019-04-05T13:35:54.726Z,30.25
2019-04-05T13:38:23.609Z,22.02
2019-04-05T13:40:52.556Z,23.67
2019-04-05T13:43:21.549Z,36.70
2019-04-05T13:45:50.440Z,26.35
2019-04-05T13:48:19.377Z,19.95
2019-04-05T13:50:48.259Z,26.68
2019-04-05T13:53:17.151Z,25.50
2019-04-05T13:55:47.541Z,22.90
2019-04-05T13:58:16.661Z,22.22
2019-04-05T14:00:48.396Z,13.55
2019-04-05T14:03:16.248Z,16.80
2019-04-05T14:05:45.134Z,19.27
2019-04-05T14:08:14.022Z,22.13
2019-04-05T14:10:43.262Z,19.60
2019-04-05T14:13:12.344Z,19.30
2019-04-05T14:15:42.356Z,12.15
2019-04-05T14:18:14.338Z,15.90
2019-04-05T14:20:42.551Z,19.92
2019-04-05T14:23:11.444Z,21.75
2019-04-05T14:25:40.452Z,18.27
2019-04-05T14:28:09.337Z,14.43
2019-04-05T14:30:38.221Z,20.92
2019-04-05T14:33:07.184Z,16.02
2019-04-05T14:35:36.099Z,14.75
2019-04-05T14:38:05.176Z,15.78
2019-04-05T14:40:34.112Z,17.62
2019-04-05T14:43:03.017Z,27.00
2019-04-05T14:45:31.900Z,27.27
2019-04-05T14:48:00.843Z,21.52
2019-04-05T14:50:29.929Z,20.37
2019-04-05T14:53:01.136Z,20.80
2019-04-05T14:55:29.950Z,11.33
2019-04-05T14:57:59.667Z,20.12
2019-04-05T15:00:29.229Z,17.25
2019-04-05T15:02:58.164Z,16.15
2019-04-05T15:05:27.057Z,15.68
2019-04-05T15:07:55.948Z,13.68
2019-04-05T15:10:25.416Z,16.00
2019-04-05T15:12:55.101Z,11.88
2019-04-05T15:15:24.005Z,13.60
2019-04-05T15:17:54.021Z,14.85
2019-04-05T15:20:23.218Z,13.10
2019-04-05T15:22:52.093Z,14.47
2019-04-05T15:25:21.809Z,20.12
2019-04-05T15:27:55.182Z,17.45
2019-04-05T15:30:21.459Z,13.20
2019-04-05T15:32:51.433Z,9.05
2019-04-05T15:35:20.503Z,10.55
2019-04-05T15:37:49.382Z,9.15
2019-04-05T15:40:18.708Z,9.43
2019-04-05T15:42:47.580Z,9.08
2019-04-05T15:45:17.067Z,13.15
2019-04-05T15:47:46.224Z,12.90
2019-04-05T15:50:15.627Z,14.78
2019-04-05T15:52:44.509Z,14.55
2019-04-05T15:55:13.447Z,14.40
2019-04-05T15:57:42.344Z,11.35
2019-04-05T16:00:14.200Z,10.88
2019-04-05T16:02:43.281Z,15.68
2019-04-05T16:05:13.510Z,14.03
2019-04-05T16:07:42.500Z,14.47
2019-04-05T16:10:11.416Z,14.70
2019-04-05T16:12:40.330Z,9.33
2019-04-05T16:15:09.603Z,9.55
2019-04-05T16:17:38.599Z,9.95
2019-04-05T16:20:10.205Z,12.28
2019-04-05T16:22:39.095Z,11.85
2019-04-05T16:25:09.840Z,11.85
2019-04-05T16:27:38.741Z,22.32
2019-04-05T16:30:08.314Z,9.20
2019-04-05T16:32:37.265Z,13.98
2019-04-05T16:35:07.035Z,24.15
2019-04-05T16:37:35.959Z,12.50
2019-04-05T16:40:08.962Z,15.48
2019-04-05T16:42:37.941Z,8.80
2019-04-05T16:45:11.812Z,12.43
2019-04-05T16:47:40.913Z,10.83
2019-04-05T16:50:10.507Z,11.70
2019-04-05T16:52:45.141Z,14.98
2019-04-05T16:55:10.622Z,10.53
2019-04-05T16:57:39.700Z,5.15
2019-04-05T17:00:11.748Z,14.50
2019-04-05T17:02:40.823Z,12.68
2019-04-05T17:05:10.977Z,7.30
2019-04-05T17:07:39.884Z,10.32
2019-04-05T17:10:09.302Z,13.55
2019-04-05T17:12:38.189Z,10.93
2019-04-05T17:15:08.459Z,17.42
2019-04-05T17:17:37.397Z,10.63
2019-04-05T17:20:09.838Z,15.55
2019-04-05T17:22:38.723Z,11.38
2019-04-05T17:25:08.048Z,12.60
2019-04-05T17:27:36.933Z,13.18
2019-04-05T17:30:07.341Z,11.40
2019-04-05T17:32:36.307Z,13.35
2019-04-05T17:35:06.355Z,11.38
2019-04-05T17:37:35.237Z,14.55
2019-04-05T17:40:06.909Z,13.30
2019-04-05T17:42:35.791Z,17.10
2019-04-05T17:45:07.422Z,12.95
2019-04-05T17:47:36.331Z,12.45
2019-04-05T17:50:10.450Z,9.65
2019-04-05T17:52:37.969Z,16.20
2019-04-05T17:55:07.899Z,12.07
2019-04-05T17:57:36.952Z,9.85
2019-04-05T18:00:08.966Z,10.35
2019-04-05T18:02:38.234Z,13.10
2019-04-05T18:05:07.715Z,5.05
2019-04-05T18:07:39.187Z,13.48
2019-04-05T18:10:08.655Z,7.97
2019-04-05T18:12:37.606Z,22.10
2019-04-05T18:15:06.790Z,11.48
2019-04-05T18:17:35.901Z,16.87
2019-04-05T18:20:09.603Z,12.60
2019-04-05T18:22:37.832Z,6.28
2019-04-05T18:25:07.272Z,12.50
2019-04-05T18:27:36.596Z,5.53
2019-04-05T18:30:08.425Z,4.72
2019-04-05T18:32:37.591Z,8.83
2019-04-05T18:35:07.147Z,8.53
2019-04-05T18:37:41.893Z,9.68
2019-04-05T18:42:42.066Z,9.33
2019-04-05T18:45:11.268Z,11.83
2019-04-05T18:47:40.366Z,7.47
2019-04-05T18:50:09.628Z,5.55
2019-04-05T18:52:38.840Z,13.45
2019-04-05T18:55:09.287Z,13.43
2019-04-05T18:57:38.617Z,16.10
2019-04-05T19:00:08.432Z,8.98
2019-04-05T19:02:37.563Z,12.07
2019-04-05T19:05:07.177Z,9.48
2019-04-05T19:07:36.479Z,7.97
2019-04-05T19:10:07.638Z,11.60
2019-04-05T19:12:36.848Z,14.20
2019-04-05T19:15:07.646Z,10.38
2019-04-05T19:17:36.705Z,11.90
2019-04-05T19:20:07.205Z,12.53
2019-04-05T19:22:36.322Z,11.78
2019-04-05T19:25:07.996Z,10.75
2019-04-05T19:27:37.354Z,9.00
2019-04-05T19:50:14.395Z,11.85
2019-04-05T19:52:43.526Z,13.18
2019-04-05T19:55:12.472Z,8.33
2019-04-05T19:57:41.363Z,8.95
2019-04-05T20:00:10.685Z,9.28
2019-04-05T20:02:39.755Z,8.53
2019-04-05T20:05:09.027Z,12.98
2019-04-05T20:07:39.451Z,14.55
2019-04-05T20:10:08.653Z,17.37
2019-04-05T20:12:37.633Z,12.98
2019-04-05T20:15:07.880Z,16.67
2019-04-05T20:17:37.032Z,15.60
2019-04-05T20:20:08.311Z,15.45
2019-04-05T20:22:37.366Z,14.75
2019-04-05T20:25:06.965Z,10.53
2019-04-05T20:27:36.172Z,16.10
2019-04-05T20:30:07.967Z,15.30
2019-04-05T20:32:36.964Z,13.40
2019-04-05T20:35:06.258Z,17.45
2019-04-05T20:37:35.608Z,18.48
2019-04-05T20:40:07.747Z,13.60
2019-04-05T20:42:37.734Z,16.90
2019-04-05T20:45:08.851Z,18.92
2019-04-05T20:47:38.343Z,14.58
2019-04-05T20:50:11.948Z,15.30
2019-04-05T20:52:41.249Z,22.22
2019-04-05T20:55:10.833Z,21.25
2019-04-05T20:57:40.505Z,16.42
2019-04-05T21:00:13.386Z,18.52
2019-04-05T21:02:43.186Z,16.77
2019-04-05T21:05:13.034Z,25.12
2019-04-05T21:07:42.721Z,19.45
2019-04-05T21:10:12.414Z,20.92
2019-04-05T21:12:42.353Z,21.30
2019-04-05T21:15:11.954Z,21.65
2019-04-05T21:17:41.628Z,18.98
2019-04-05T21:20:11.747Z,13.95
2019-04-05T21:22:41.051Z,24.77
2019-04-05T21:25:10.298Z,21.07
2019-04-05T21:27:39.610Z,17.40
2019-04-05T21:30:09.536Z,19.07
2019-04-05T21:32:38.404Z,18.75
2019-04-05T21:35:07.866Z,16.37
2019-04-05T21:37:36.744Z,16.42
2019-04-05T21:40:07.776Z,25.45
2019-04-05T21:42:36.761Z,19.75
2019-04-05T21:45:08.632Z,16.30
2019-04-05T21:47:37.628Z,29.82
2019-04-05T21:50:09.463Z,21.40
2019-04-05T21:52:38.373Z,24.55
2019-04-05T21:55:07.804Z,19.80
2019-04-05T21:57:36.716Z,20.30
2019-04-05T22:00:23.458Z,19.57
2019-04-05T22:02:52.349Z,20.95
2019-04-05T22:05:21.240Z,19.00
2019-04-05T22:07:51.591Z,24.80
2019-04-05T22:10:20.849Z,21.52
2019-04-05T22:12:51.594Z,21.93
2019-04-05T22:15:21.186Z,14.00
2019-04-05T22:17:52.788Z,13.70
2019-04-05T22:20:22.389Z,18.40
2019-04-05T22:22:51.961Z,13.80
2019-04-05T22:25:20.917Z,27.65
2019-04-05T22:27:51.093Z,16.27
2019-04-05T22:30:20.215Z,17.17
2019-04-05T22:32:49.213Z,23.45
2019-04-05T22:35:18.126Z,23.30
2019-04-05T22:37:47.085Z,15.45
2019-04-05T22:40:15.976Z,19.92
2019-04-05T22:42:44.903Z,24.75
2019-04-05T22:45:13.938Z,30.50
2019-04-05T22:47:43.056Z,20.50
2019-04-05T22:50:12.223Z,29.50
2019-04-05T22:52:41.189Z,22.95
2019-04-05T22:55:11.916Z,24.30
2019-04-05T22:57:41.206Z,23.98
2019-04-05T23:00:10.776Z,21.17
2019-04-05T23:02:39.697Z,35.65
2019-04-05T23:05:08.797Z,24.77
2019-04-05T23:07:37.761Z,23.38
2019-04-05T23:10:09.437Z,18.57
2019-04-05T23:12:38.381Z,30.68
2019-04-05T23:15:09.606Z,31.68
2019-04-05T23:17:38.600Z,20.40
2019-04-05T23:20:08.523Z,22.67
2019-04-05T23:22:37.568Z,25.27
2019-04-05T23:25:07.178Z,27.13
2019-04-05T23:27:36.122Z,22.45
2019-04-05T23:30:07.329Z,28.02
2019-04-05T23:32:36.671Z,18.77
2019-04-05T23:35:08.269Z,20.12
2019-04-05T23:37:37.351Z,21.33
2019-04-05T23:40:07.067Z,13.62
2019-04-05T23:42:35.966Z,23.15
2019-04-05T23:45:07.033Z,18.40
2019-04-05T23:47:36.047Z,16.42
2019-04-05T23:50:06.251Z,23.70
2019-04-05T23:52:35.218Z,21.07
2019-04-05T23:55:05.160Z,15.00
2019-04-05T23:57:34.178Z,19.65
